Time;durP1;ratioP1;P1;durP2;ratioP2;P2;SDS_P1;SDS_P2;PMS_P1;PMS_P2;Temp;Humidity;BMP_temperature;BMP_pressure;BME280_temperature;BME280_humidity;BME280_pressure;Samples;Min_cycle;Max_cycle;Signal;HPM_P1;HPM_P2
2022/05/12 00:01:54;;;;;;;4.53;1.60;;;;;;;-145.18;100.00;46638.91;5031872;28;20049;-72
2022/05/12 00:04:19;;;;;;;6.13;1.97;;;;;;;-145.18;100.00;46635.00;5031071;28;20418;-73
2022/05/12 00:06:45;;;;;;;3.03;1.57;;;;;;;-145.18;100.00;46642.81;5031971;28;20266;-73
2022/05/12 00:09:10;;;;;;;8.43;1.70;;;;;;;-145.18;100.00;46636.94;5031915;28;20805;-73
2022/05/12 00:11:35;;;;;;;6.70;1.67;;;;;;;-145.18;100.00;46642.81;5030925;28;20038;-73
2022/05/12 00:14:01;;;;;;;5.77;1.40;;;;;;;-145.18;100.00;46638.91;5032102;28;20099;-73
2022/05/12 00:16:27;;;;;;;9.37;2.03;;;;;;;-145.18;100.00;46638.91;5031822;28;20025;-74
2022/05/12 00:18:52;;;;;;;12.27;3.47;;;;;;;-145.18;100.00;46635.00;5032164;28;20270;-73
2022/05/12 00:21:17;;;;;;;5.57;2.13;;;;;;;-145.18;100.00;46638.91;5031269;28;20025;-73
2022/05/12 00:23:56;;;;;;;8.00;1.87;;;;;;;-145.18;100.00;46638.91;5032278;28;20026;-73
2022/05/12 00:26:31;;;;;;;8.33;2.27;;;;;;;-145.18;100.00;46636.94;5031523;28;20061;-74
2022/05/12 00:28:57;;;;;;;7.57;2.05;;;;;;;-145.18;100.00;46635.00;5032167;28;20698;-74
2022/05/12 00:31:23;;;;;;;6.73;2.77;;;;;;;-145.18;100.00;46638.91;5031460;28;20045;-74
2022/05/12 00:33:48;;;;;;;9.23;1.97;;;;;;;-145.18;100.00;46631.09;5031029;28;20303;-74
2022/05/12 00:36:14;;;;;;;4.90;1.63;;;;;;;-145.18;100.00;46631.09;5029628;28;20030;-73
2022/05/12 00:38:39;;;;;;;5.80;1.93;;;;;;;-145.18;100.00;46635.00;5032071;28;20481;-73
2022/05/12 00:41:05;;;;;;;7.83;1.73;;;;;;;-145.18;100.00;46631.09;5031317;28;20537;-73
2022/05/12 00:43:39;;;;;;;7.23;1.80;;;;;;;-145.18;100.00;46633.06;5030046;28;20048;-73
2022/05/12 00:46:12;;;;;;;7.23;1.70;;;;;;;-145.18;100.00;46631.09;5031289;28;20593;-73
2022/05/12 00:48:39;;;;;;;11.90;2.23;;;;;;;-145.18;100.00;46631.09;5031162;28;20283;-74
2022/05/12 00:51:06;;;;;;;8.70;2.00;;;;;;;-145.18;100.00;46633.06;5030225;28;20340;-74
2022/05/12 00:53:34;;;;;;;8.67;1.77;;;;;;;-145.18;100.00;46633.06;5031018;28;20739;-74
2022/05/12 00:56:00;;;;;;;7.93;1.30;;;;;;;-145.18;100.00;46631.09;5030645;28;20279;-73
2022/05/12 00:58:28;;;;;;;4.30;1.40;;;;;;;-145.18;100.00;46629.13;5031283;28;20360;-73
2022/05/12 01:00:53;;;;;;;9.70;1.87;;;;;;;-145.18;100.00;46629.13;5031311;28;20417;-74
2022/05/12 01:03:23;;;;;;;6.47;1.97;;;;;;;-145.18;100.00;46660.41;5029064;28;20287;-74
2022/05/12 01:05:50;;;;;;;7.73;1.60;;;;;;;-145.18;100.00;46631.09;5031261;28;20025;-74
2022/05/12 01:08:17;;;;;;;5.00;1.40;;;;;;;-145.18;100.00;46631.09;5030690;28;20928;-74
2022/05/12 01:10:47;;;;;;;12.53;2.67;;;;;;;-145.18;100.00;46629.13;5031295;28;20301;-74
2022/05/12 01:13:12;;;;;;;5.97;1.90;;;;;;;-145.18;100.00;46629.13;5030426;28;20294;-74
2022/05/12 01:15:38;;;;;;;5.17;1.37;;;;;;;-145.18;100.00;46660.41;5030982;28;20275;-74
2022/05/12 01:18:10;;;;;;;7.80;1.90;;;;;;;-145.18;100.00;46631.09;5029825;28;20418;-74
2022/05/12 01:20:38;;;;;;;6.30;1.70;;;;;;;-145.18;100.00;46627.19;5031128;28;20045;-74
2022/05/12 01:23:19;;;;;;;7.63;2.20;;;;;;;-145.18;100.00;46638.91;5029482;28;20302;-74
2022/05/12 01:25:44;;;;;;;5.73;2.07;;;;;;;-145.18;100.00;46631.09;5011112;28;20778;-74
2022/05/12 01:28:09;;;;;;;8.13;2.00;;;;;;;-145.18;100.00;46631.09;5010396;28;20346;-74
2022/05/12 01:30:35;;;;;;;4.30;1.50;;;;;;;-145.18;100.00;46629.13;5011067;28;20041;-74
2022/05/12 01:33:00;;;;;;;7.50;2.00;;;;;;;-145.18;100.00;46629.13;5010158;28;20058;-74
2022/05/12 01:35:26;;;;;;;4.20;1.40;;;;;;;-145.18;100.00;46635.00;5010935;28;20407;-74
2022/05/12 01:37:51;;;;;;;9.23;2.83;;;;;;;-145.18;100.00;46631.09;5010680;28;20030;-74
2022/05/12 01:40:20;;;;;;;4.37;1.83;;;;;;;-145.18;100.00;46633.06;5010565;28;20445;-74
2022/05/12 01:42:46;;;;;;;7.90;1.93;;;;;;;-145.18;100.00;46633.06;5010057;28;20057;-74
2022/05/12 01:45:12;;;;;;;8.73;2.97;;;;;;;-145.18;100.00;46633.06;5010451;28;20307;-74
2022/05/12 01:47:38;;;;;;;10.40;2.07;;;;;;;-145.18;100.00;46629.13;5010592;28;20037;-74
2022/05/12 01:50:04;;;;;;;6.53;1.90;;;;;;;-145.18;100.00;46633.06;5010613;28;20033;-74
2022/05/12 01:52:30;;;;;;;9.33;2.00;;;;;;;-145.18;100.00;46633.06;5010141;28;20271;-73
2022/05/12 01:54:56;;;;;;;4.00;1.80;;;;;;;-145.18;100.00;46633.06;5010441;28;20271;-74
2022/05/12 01:57:22;;;;;;;6.37;1.77;;;;;;;-145.18;100.00;46635.00;5009838;28;20041;-73
2022/05/12 01:59:48;;;;;;;5.53;1.80;;;;;;;-145.18;100.00;46633.06;5010586;28;20037;-74
2022/05/12 02:02:14;;;;;;;7.07;1.50;;;;;;;-145.18;100.00;46627.19;5683544;23;21710;-74
2022/05/12 02:04:40;;;;;;;2.37;1.60;;;;;;;-145.18;100.00;46633.06;5018064;28;20099;-74
2022/05/12 02:07:05;;;;;;;5.23;1.60;;;;;;;-145.18;100.00;46631.09;5026445;28;20751;-74
2022/05/12 02:09:30;;;;;;;3.83;1.50;;;;;;;-145.18;100.00;46633.06;5010248;28;20135;-74
2022/05/12 02:11:56;;;;;;;7.87;1.70;;;;;;;-145.18;100.00;46635.00;5009127;28;20505;-74
2022/05/12 02:14:21;;;;;;;9.07;1.67;;;;;;;-145.18;100.00;46633.06;5009922;28;20073;-74
2022/05/12 02:16:47;;;;;;;7.83;1.93;;;;;;;-145.18;100.00;46636.94;5010538;28;20033;-74
2022/05/12 02:19:12;;;;;;;5.90;1.70;;;;;;;-145.18;100.00;46636.94;5009806;28;20034;-74
2022/05/12 02:21:37;;;;;;;4.70;1.60;;;;;;;-145.18;100.00;46636.94;5010502;28;20172;-74
2022/05/12 02:24:04;;;;;;;5.83;1.80;;;;;;;-145.18;100.00;46636.94;5009866;28;20056;-74
2022/05/12 02:26:30;;;;;;;8.70;2.30;;;;;;;-145.18;100.00;46629.13;5010365;28;20033;-73
2022/05/12 02:28:56;;;;;;;8.93;2.83;;;;;;;-145.18;100.00;46635.00;5009959;28;20283;-73
2022/05/12 02:31:21;;;;;;;6.13;1.80;;;;;;;-145.18;100.00;46640.88;5010171;28;20037;-74
2022/05/12 02:33:47;;;;;;;5.47;1.97;;;;;;;-145.18;100.00;46636.94;5010250;28;20462;-73
2022/05/12 02:36:13;;;;;;;4.57;2.20;;;;;;;-145.18;100.00;46638.91;5009893;28;20375;-74
2022/05/12 02:38:39;;;;;;;8.93;2.77;;;;;;;-145.18;100.00;46638.91;5009864;28;20644;-74
2022/05/12 02:41:05;;;;;;;8.13;2.70;;;;;;;-145.18;100.00;46636.94;5008815;28;20042;-73
2022/05/12 02:43:31;;;;;;;6.80;2.50;;;;;;;-145.18;100.00;46640.88;5009822;28;20285;-74
2022/05/12 02:46:03;;;;;;;11.43;3.33;;;;;;;-145.18;100.00;46636.94;5010372;28;20030;-74
2022/05/12 02:48:31;;;;;;;8.20;3.20;;;;;;;-145.18;100.00;46633.06;5009307;28;20314;-74
2022/05/12 02:50:58;;;;;;;5.93;2.90;;;;;;;-145.18;100.00;46633.06;5010343;28;20287;-73
2022/05/12 02:53:24;;;;;;;6.73;3.00;;;;;;;-145.18;100.00;46631.09;5009760;28;20786;-73
2022/05/12 02:55:50;;;;;;;12.17;3.20;;;;;;;-145.18;100.00;46633.06;5013293;28;20279;-74
2022/05/12 02:58:16;;;;;;;9.73;3.20;;;;;;;-145.18;100.00;46633.06;5013445;28;20609;-74
2022/05/12 03:00:42;;;;;;;11.77;3.43;;;;;;;-145.18;100.00;46633.06;5014198;28;20133;-73
2022/05/12 03:03:08;;;;;;;9.87;3.60;;;;;;;-145.18;100.00;46631.09;5011613;28;20765;-73
2022/05/12 03:05:36;;;;;;;13.30;3.67;;;;;;;-145.18;100.00;46633.06;5014060;28;20037;-73
2022/05/12 03:08:03;;;;;;;12.90;4.13;;;;;;;-145.18;100.00;46627.19;5013128;28;20056;-73
2022/05/12 03:10:28;;;;;;;12.27;4.20;;;;;;;-145.18;100.00;46631.09;5013808;28;20267;-73
2022/05/12 03:12:54;;;;;;;13.10;3.97;;;;;;;-145.18;100.00;46631.09;5013353;28;20353;-73
2022/05/12 03:15:19;;;;;;;13.17;4.47;;;;;;;-145.18;100.00;46635.00;5013388;28;20044;-73
2022/05/12 03:17:45;;;;;;;9.50;4.00;;;;;;;-145.18;100.00;46633.06;5013431;28;20045;-73
2022/05/12 03:20:15;;;;;;;8.00;3.97;;;;;;;-145.18;100.00;46633.06;5013481;28;20512;-73
2022/05/12 03:22:41;;;;;;;12.63;4.80;;;;;;;-145.18;100.00;46629.13;5013079;28;20434;-73
2022/05/12 03:25:09;;;;;;;13.37;4.60;;;;;;;-145.18;100.00;46629.13;5013344;28;20297;-73
2022/05/12 03:27:35;;;;;;;21.70;5.20;;;;;;;-145.18;100.00;46621.31;5012938;28;20045;-73
2022/05/12 03:30:00;;;;;;;21.17;5.40;;;;;;;-145.18;100.00;46625.22;5013431;28;20275;-73
2022/05/12 03:32:26;;;;;;;10.57;4.27;;;;;;;-145.18;100.00;46623.28;5013040;28;20283;-73
2022/05/12 03:34:51;;;;;;;15.20;4.57;;;;;;;-145.18;100.00;46660.41;5013061;28;20065;-73
2022/05/12 03:37:17;;;;;;;18.93;6.63;;;;;;;-145.18;100.00;46660.41;5012722;28;20044;-74
2022/05/12 03:39:43;;;;;;;10.70;4.43;;;;;;;-145.18;100.00;46623.28;5012325;28;20042;-73
2022/05/12 03:42:12;;;;;;;11.40;5.47;;;;;;;-145.18;100.00;46627.19;4993329;28;20128;-73
2022/05/12 03:44:46;;;;;;;13.20;5.00;;;;;;;-145.18;100.00;46625.22;4993365;28;20624;-73
2022/05/12 03:47:19;;;;;;;15.17;5.50;;;;;;;-145.18;100.00;46660.41;4994768;28;20755;-73
2022/05/12 03:49:46;;;;;;;13.37;5.60;;;;;;;-145.18;100.00;46660.41;5011672;28;20354;-73
2022/05/12 03:52:12;;;;;;;18.03;5.67;;;;;;;-145.18;100.00;46623.28;5011623;28;20282;-73
2022/05/12 03:54:38;;;;;;;17.20;5.63;;;;;;;-145.18;100.00;46660.41;5011825;28;20295;-73
2022/05/12 03:57:03;;;;;;;13.80;5.80;;;;;;;-145.18;100.00;46660.41;5011588;28;20280;-73
2022/05/12 03:59:29;;;;;;;15.37;5.13;;;;;;;-145.18;100.00;46660.41;5011519;28;20038;-73
2022/05/12 04:01:55;;;;;;;16.97;5.87;;;;;;;-145.18;100.00;46658.44;5011987;28;20037;-73
2022/05/12 04:04:20;;;;;;;17.63;5.80;;;;;;;-145.18;100.00;46660.41;5008345;28;20082;-73
2022/05/12 04:06:45;;;;;;;13.97;5.50;;;;;;;-145.18;100.00;46623.28;5012080;28;20041;-73
2022/05/12 04:09:11;;;;;;;19.13;5.70;;;;;;;-145.18;100.00;46658.44;5009753;28;20465;-73
2022/05/12 04:11:36;;;;;;;16.03;5.03;;;;;;;-145.18;100.00;46660.41;5011886;28;20046;-72
2022/05/12 04:14:04;;;;;;;19.77;5.53;;;;;;;-145.18;100.00;46660.41;5011866;28;20096;-72
2022/05/12 04:16:30;;;;;;;17.53;6.23;;;;;;;-145.18;100.00;46660.41;5018031;28;20067;-72
2022/05/12 04:18:56;;;;;;;18.40;6.33;;;;;;;-145.18;100.00;46623.28;5031839;28;20301;-72
2022/05/12 04:21:21;;;;;;;14.97;6.57;;;;;;;-145.18;100.00;46625.22;5032583;28;20294;-72
2022/05/12 04:23:47;;;;;;;16.73;6.83;;;;;;;-145.18;100.00;46625.22;5016413;28;20509;-72
2022/05/12 04:26:12;;;;;;;23.97;6.40;;;;;;;-145.18;100.00;46621.31;5012194;28;20065;-72
2022/05/12 04:28:37;;;;;;;20.73;6.70;;;;;;;-145.18;100.00;46658.44;5011786;28;20037;-72
2022/05/12 04:31:03;;;;;;;24.83;7.50;;;;;;;-145.18;100.00;46658.44;5011991;28;20038;-72
2022/05/12 04:36:13;;;;;;;18.07;6.93;;;;;;;-145.18;100.00;46619.38;5011764;28;20056;-73
2022/05/12 04:38:39;;;;;;;11.77;6.53;;;;;;;-145.18;100.00;46615.47;5011847;28;20271;-72
2022/05/12 04:41:04;;;;;;;15.63;5.77;;;;;;;-145.18;100.00;46617.41;5011575;28;20278;-72
2022/05/12 04:43:30;;;;;;;18.73;6.83;;;;;;;-145.18;100.00;46617.41;5011743;28;20121;-72
2022/05/12 04:45:55;;;;;;;17.97;6.63;;;;;;;-145.18;100.00;46619.38;5011015;28;20045;-72
2022/05/12 04:48:21;;;;;;;22.00;7.40;;;;;;;-145.18;100.00;46613.50;5011194;28;20038;-72
2022/05/12 04:50:46;;;;;;;17.93;7.00;;;;;;;-145.18;100.00;46621.31;5011862;28;20076;-72
2022/05/12 04:53:12;;;;;;;19.13;7.53;;;;;;;-145.18;100.00;46617.41;5011122;28;20046;-72
2022/05/12 04:55:38;;;;;;;14.00;7.37;;;;;;;-145.18;100.00;46621.31;5011785;28;20091;-72
2022/05/12 04:58:03;;;;;;;14.07;6.67;;;;;;;-145.18;100.00;46615.47;5011278;28;20034;-72
2022/05/12 05:00:34;;;;;;;19.57;8.50;;;;;;;-145.18;100.00;46619.38;5011714;28;20341;-72
2022/05/12 05:03:00;;;;;;;26.60;8.27;;;;;;;-145.18;100.00;46615.47;5009963;28;20054;-72
2022/05/12 05:05:26;;;;;;;19.50;8.20;;;;;;;-145.18;100.00;46617.41;5011154;28;20381;-72
2022/05/12 05:07:52;;;;;;;20.07;7.73;;;;;;;-145.18;100.00;46613.50;5007946;28;20255;-72
2022/05/12 05:10:18;;;;;;;20.57;9.07;;;;;;;-145.18;100.00;46613.50;5011612;28;20325;-72
2022/05/12 05:12:43;;;;;;;16.90;8.10;;;;;;;-145.18;100.00;46613.50;5011097;28;20034;-72
2022/05/12 05:15:11;;;;;;;19.87;9.40;;;;;;;-145.18;100.00;46609.59;4993710;28;20550;-70
2022/05/12 05:17:37;;;;;;;24.20;11.77;;;;;;;-145.18;100.00;46609.59;5010330;28;20053;-72
2022/05/12 05:20:07;;;;;;;26.50;10.27;;;;;;;-145.18;100.00;46611.56;5010917;28;20628;-70
2022/05/12 05:22:33;;;;;;;30.37;11.97;;;;;;;-145.18;100.00;46609.59;5010836;28;20045;-69
2022/05/12 05:24:59;;;;;;;25.20;11.20;;;;;;;-145.18;100.00;46615.47;5009587;28;20291;-69
2022/05/12 05:27:24;;;;;;;33.70;12.40;;;;;;;-145.18;100.00;46613.50;5011171;28;20034;-71
2022/05/12 05:29:51;;;;;;;25.47;12.17;;;;;;;-145.18;100.00;46607.66;5010803;28;20617;-72
2022/05/12 05:32:17;;;;;;;30.47;12.97;;;;;;;-145.18;100.00;46613.50;5011000;28;20135;-70
2022/05/12 05:34:42;;;;;;;28.80;12.83;;;;;;;-145.18;100.00;46611.56;5010703;28;20303;-70
2022/05/12 05:37:07;;;;;;;30.47;12.70;;;;;;;-145.18;100.00;46611.56;5010660;28;20272;-72
2022/05/12 05:39:35;;;;;;;33.43;14.23;;;;;;;-145.18;100.00;46609.59;4993083;28;20573;-70
2022/05/12 05:42:11;;;;;;;30.97;13.70;;;;;;;-145.18;100.00;46611.56;5010804;28;20045;-72
2022/05/12 05:44:36;;;;;;;37.53;13.88;;;;;;;-145.18;100.00;46611.56;5010262;28;20255;-72
2022/05/12 05:47:03;;;;;;;32.37;12.87;;;;;;;-145.18;100.00;46607.66;5009885;28;20029;-70
2022/05/12 05:49:29;;;;;;;27.23;12.63;;;;;;;-145.18;100.00;46609.59;5009393;28;20430;-71
2022/05/12 05:54:40;;;;;;;26.23;10.70;;;;;;;-145.18;100.00;46607.66;4995727;28;20373;-70
2022/05/12 05:57:05;;;;;;;30.67;13.10;;;;;;;-145.18;100.00;46607.66;4990824;28;20668;-71
2022/05/12 05:59:31;;;;;;;20.33;8.73;;;;;;;-145.18;100.00;46609.59;4990208;28;20045;-70
2022/05/12 06:01:57;;;;;;;17.43;9.67;;;;;;;-145.18;100.00;46611.56;4991000;28;20125;-70
2022/05/12 06:04:22;;;;;;;25.57;9.30;;;;;;;-145.18;100.00;46603.75;4976689;28;20086;-70
2022/05/12 06:06:48;;;;;;;22.70;8.27;;;;;;;-145.18;100.00;46607.66;4989574;28;20268;-70
2022/05/12 06:09:14;;;;;;;16.63;7.47;;;;;;;-145.18;100.00;46609.59;4989446;28;20061;-70
2022/05/12 06:11:41;;;;;;;22.77;7.50;;;;;;;-145.18;100.00;46611.56;4990834;28;20074;-70
2022/05/12 06:14:07;;;;;;;13.27;6.37;;;;;;;-145.18;100.00;46615.47;4989436;28;20042;-70
2022/05/12 06:16:32;;;;;;;14.53;6.70;;;;;;;-145.18;100.00;46617.41;4990732;28;20058;-70
2022/05/12 06:18:57;;;;;;;14.83;5.97;;;;;;;-145.18;100.00;46619.38;4990379;28;20113;-71
2022/05/12 06:21:23;;;;;;;13.70;5.77;;;;;;;-145.18;100.00;46625.22;4990437;28;20050;-70
2022/05/12 06:23:48;;;;;;;13.93;5.00;;;;;;;-145.18;100.00;46627.19;4990367;28;20042;-70
2022/05/12 06:26:14;;;;;;;16.33;4.17;;;;;;;-145.18;100.00;46629.13;4989713;28;20586;-70
2022/05/12 06:28:46;;;;;;;11.37;4.07;;;;;;;-145.18;100.00;46633.06;4989065;28;20557;-70
2022/05/12 06:31:14;;;;;;;8.57;3.60;;;;;;;-145.18;100.00;46636.94;4978833;28;20034;-71
2022/05/12 06:33:41;;;;;;;13.73;3.63;;;;;;;-145.18;100.00;46636.94;4970409;28;20128;-70
2022/05/12 06:36:07;;;;;;;9.80;3.97;;;;;;;-145.18;100.00;46646.72;4975810;28;20116;-70
2022/05/12 06:38:34;;;;;;;18.87;3.73;;;;;;;-145.18;100.00;46648.69;4990439;28;20137;-70
2022/05/12 06:41:00;;;;;;;13.07;3.57;;;;;;;-145.18;100.00;46644.78;4989510;28;20045;-71
2022/05/12 06:43:26;;;;;;;11.73;3.17;;;;;;;-145.18;100.00;46636.94;4989136;28;20043;-70
2022/05/12 06:45:52;;;;;;;13.00;3.73;;;;;;;-145.18;100.00;46625.22;4990006;28;20112;-70
2022/05/12 06:48:17;;;;;;;7.90;2.80;;;;;;;-145.18;100.00;46582.25;4989936;28;20041;-70
2022/05/12 06:50:43;;;;;;;9.90;3.63;;;;;;;-145.18;100.00;46586.16;4990354;28;20041;-71
2022/05/12 06:53:09;;;;;;;6.63;2.50;;;;;;;-145.18;100.00;46541.25;4989735;28;20125;-70
2022/05/12 06:55:34;;;;;;;8.53;2.80;;;;;;;-145.18;100.00;46529.53;4990641;28;20062;-71
2022/05/12 06:58:00;;;;;;;6.57;2.50;;;;;;;-145.18;100.00;46523.66;4989342;28;20509;-71
2022/05/12 07:00:25;;;;;;;10.47;3.00;;;;;;;-145.18;100.00;46535.38;4989682;28;20050;-70
2022/05/12 07:02:52;;;;;;;7.07;2.47;;;;;;;-145.18;100.00;46533.44;4991056;28;20034;-71
2022/05/12 07:05:21;;;;;;;13.97;3.97;;;;;;;-145.18;100.00;46519.75;5009553;28;20062;-71
2022/05/12 07:07:46;;;;;;;9.63;2.80;;;;;;;-145.18;100.00;46531.47;5010077;28;20116;-71
2022/05/12 07:10:14;;;;;;;8.87;3.20;;;;;;;-145.18;100.00;46551.00;5009124;28;20083;-71
2022/05/12 07:12:41;;;;;;;8.07;2.67;;;;;;;-145.18;100.00;46549.06;5009986;28;20498;-71
2022/05/12 07:15:08;;;;;;;10.63;2.83;;;;;;;-145.18;100.00;46549.06;5009775;28;20163;-70
2022/05/12 07:17:37;;;;;;;10.87;3.07;;;;;;;-145.18;100.00;46543.19;5010043;28;20115;-72
2022/05/12 07:28:15;;;;;;;8.43;2.80;;;;;;;-145.18;100.00;46558.81;5009602;28;20045;-70
2022/05/12 07:33:25;;;;;;;7.73;2.83;;;;;;;-145.18;100.00;46562.72;5008779;28;20541;-71
2022/05/12 07:35:50;;;;;;;7.50;2.47;;;;;;;-145.18;100.00;46562.72;5009884;28;20034;-71
2022/05/12 07:38:16;;;;;;;7.83;2.40;;;;;;;-145.18;100.00;46552.97;5008088;28;20117;-71
2022/05/12 07:40:41;;;;;;;10.60;2.50;;;;;;;-145.18;100.00;46551.00;5010508;28;20500;-71
2022/05/12 07:43:07;;;;;;;10.20;2.07;;;;;;;-145.18;100.00;46556.88;5012590;28;20034;-71
2022/05/12 07:45:32;;;;;;;8.60;2.13;;;;;;;-145.18;100.00;46551.00;5013323;28;20071;-71
2022/05/12 07:47:58;;;;;;;9.93;2.20;;;;;;;-145.18;100.00;46564.69;5012950;28;20040;-71
2022/05/12 07:50:24;;;;;;;5.93;1.70;;;;;;;-145.18;100.00;46576.41;4994895;28;20375;-71
2022/05/12 07:52:49;;;;;;;4.97;1.90;;;;;;;-145.18;100.00;46638.91;5013046;28;20053;-71
2022/05/12 07:55:15;;;;;;;6.80;1.73;;;;;;;-145.18;100.00;46605.69;4994719;28;20113;-70
2022/05/12 07:57:41;;;;;;;3.03;1.20;;;;;;;-145.18;100.00;46658.44;5013075;28;20050;-71
2022/05/12 08:00:10;;;;;;;5.20;1.80;;;;;;;-145.18;100.00;46679.94;5010724;28;20073;-71
2022/05/12 08:02:36;;;;;;;5.23;1.53;;;;;;;-145.18;100.00;46613.50;5012728;28;20474;-71
2022/05/12 08:05:04;;;;;;;5.23;1.53;;;;;;;-145.18;100.00;46613.50;5011972;28;20056;-70
2022/05/12 08:07:30;;;;;;;4.17;1.63;;;;;;;-145.18;100.00;46707.28;5012766;28;20049;-71
2022/05/12 08:09:57;;;;;;;7.47;1.77;;;;;;;-145.18;100.00;46599.84;5012338;28;20530;-71
2022/05/12 08:12:23;;;;;;;9.90;2.40;;;;;;;-145.18;100.00;46619.38;5011038;28;20038;-71
2022/05/12 08:14:48;;;;;;;8.00;1.60;;;;;;;-145.18;100.00;46984.66;5012298;28;20045;-71
2022/05/12 08:17:13;;;;;;;5.80;1.60;;;;;;;-145.18;100.00;47166.34;5011637;28;20042;-71
2022/05/12 08:19:39;;;;;;;7.77;1.70;;;;;;;-145.18;100.00;47279.66;5012252;28;20038;-71
2022/05/12 08:22:04;;;;;;;6.60;1.77;;;;;;;-145.18;100.00;47181.97;5012439;28;20034;-71
2022/05/12 08:24:29;;;;;;;8.13;1.73;;;;;;;-145.18;100.00;47096.00;5012199;28;20393;-71
2022/05/12 08:26:55;;;;;;;8.60;1.87;;;;;;;-145.18;100.00;47281.59;5012320;28;20081;-71
2022/05/12 08:29:20;;;;;;;6.50;1.50;;;;;;;-145.18;100.00;47248.41;5011922;28;20042;-71
2022/05/12 08:31:45;;;;;;;7.10;1.63;;;;;;;-145.18;100.00;47277.69;4995050;28;20034;-73
2022/05/12 08:34:11;;;;;;;4.40;1.40;;;;;;;-145.18;100.00;47254.25;5011619;28;20121;-72
2022/05/12 08:36:36;;;;;;;11.07;1.60;;;;;;;-145.18;100.00;47244.50;5012382;28;20034;-71
2022/05/12 08:39:03;;;;;;;2.97;0.90;;;;;;;-145.18;100.00;47275.75;5011484;28;20041;-71
2022/05/12 08:41:42;;;;;;;3.13;1.10;;;;;;;-145.18;100.00;47312.88;5012173;28;20065;-71
2022/05/12 08:44:21;;;;;;;4.13;1.30;;;;;;;-145.18;100.00;47265.97;5011582;28;20026;-72
2022/05/12 08:46:58;;;;;;;5.43;1.40;;;;;;;-145.18;100.00;47267.94;5012230;28;20068;-71
2022/05/12 08:49:41;;;;;;;6.70;1.40;;;;;;;-145.18;100.00;47201.50;5011495;28;20057;-72
2022/05/12 08:52:24;;;;;;;4.47;1.20;;;;;;;-145.18;100.00;47201.50;5011881;28;20030;-71
2022/05/12 08:54:52;;;;;;;5.57;1.23;;;;;;;-145.18;100.00;47228.84;5010992;28;20044;-71
2022/05/12 08:57:26;;;;;;;11.47;1.77;;;;;;;-145.18;100.00;47180.03;5011504;28;20037;-72
2022/05/12 08:59:51;;;;;;;4.60;1.60;;;;;;;-145.18;100.00;47156.56;5011433;28;20046;-72
2022/05/12 09:02:24;;;;;;;5.90;1.83;;;;;;;-145.18;100.00;47160.47;5011383;28;20096;-71
2022/05/12 09:04:58;;;;;;;4.90;1.30;;;;;;;-145.18;100.00;47172.19;5008972;28;20504;-72
2022/05/12 09:07:28;;;;;;;5.87;1.50;;;;;;;-145.18;100.00;47158.53;5011605;28;20042;-71
2022/05/12 09:10:17;;;;;;;3.80;1.20;;;;;;;-145.18;100.00;47156.56;5011049;28;20029;-72
2022/05/12 09:12:52;;;;;;;10.43;2.07;;;;;;;-145.18;100.00;47148.75;5011310;28;20156;-72
2022/05/12 09:15:23;;;;;;;6.65;1.10;;;;;;;-145.18;100.00;47133.13;5010659;28;20033;-71
2022/05/12 09:17:57;;;;;;;6.20;1.27;;;;;;;-145.18;100.00;47133.13;5011525;28;20033;-72
2022/05/12 09:20:25;;;;;;;7.47;1.20;;;;;;;-145.18;100.00;47174.16;5010837;28;20065;-72
2022/05/12 09:22:50;;;;;;;5.33;1.30;;;;;;;-145.18;100.00;47150.72;5010994;28;20433;-72
2022/05/12 09:25:38;;;;;;;6.20;1.30;;;;;;;-145.18;100.00;47156.56;5010648;28;20108;-71
2022/05/12 09:28:34;;;;;;;5.33;1.50;;;;;;;-145.18;100.00;47137.03;5011268;28;20045;-72
2022/05/12 09:31:17;;;;;;;4.90;1.40;;;;;;;-145.18;100.00;47142.91;4993157;28;20026;-72
2022/05/12 09:33:47;;;;;;;5.70;1.20;;;;;;;-145.18;100.00;47135.09;5010781;28;20025;-71
2022/05/12 09:36:30;;;;;;;8.80;1.50;;;;;;;-145.18;100.00;47142.91;5010897;28;20478;-72
2022/05/12 09:38:56;;;;;;;5.07;1.77;;;;;;;-145.18;100.00;47135.09;5010670;28;20040;-72
2022/05/12 09:41:38;;;;;;;7.67;1.40;;;;;;;-145.18;100.00;47117.50;5009681;28;20034;-72
2022/05/12 09:44:23;;;;;;;4.77;1.70;;;;;;;-145.18;100.00;47125.31;5010299;28;20053;-72
2022/05/12 09:47:02;;;;;;;9.80;1.30;;;;;;;-145.18;100.00;47111.66;5010763;28;20065;-72
2022/05/12 09:49:38;;;;;;;5.40;1.30;;;;;;;-145.18;100.00;47109.69;5010645;28;20080;-72
2022/05/12 09:52:18;;;;;;;4.37;1.40;;;;;;;-145.18;100.00;47121.41;5010604;28;20030;-72
2022/05/12 09:54:44;;;;;;;4.83;1.27;;;;;;;-145.18;100.00;47113.59;5010439;28;20038;-72
2022/05/12 09:57:13;;;;;;;3.17;1.03;;;;;;;-145.18;100.00;47078.44;5010485;28;20033;-72
2022/05/12 09:59:40;;;;;;;4.03;1.00;;;;;;;-145.18;100.00;47090.16;5010205;28;20084;-72
2022/05/12 10:07:53;;;;;;;7.33;1.30;;;;;;;-145.18;100.00;47084.28;5010430;28;20030;-72
2022/05/12 10:08:22;;;;;;;3.83;1.20;;;;;;;-145.18;100.00;47086.25;5009665;28;20037;-72
2022/05/12 10:10:54;;;;;;;6.43;1.10;;;;;;;-145.18;100.00;47070.63;5010437;28;20033;-72
2022/05/12 10:13:31;;;;;;;5.70;1.20;;;;;;;-145.18;100.00;47070.63;5010206;28;20038;-73
2022/05/12 10:15:58;;;;;;;4.90;1.27;;;;;;;-145.18;100.00;47074.53;5010511;28;20030;-72
2022/05/12 10:18:45;;;;;;;4.77;1.10;;;;;;;-145.18;100.00;47078.44;5010072;28;20030;-72
2022/05/12 10:21:36;;;;;;;3.37;1.00;;;;;;;-145.18;100.00;47070.63;5010230;28;20026;-71
2022/05/12 10:24:27;;;;;;;4.97;1.57;;;;;;;-145.18;100.00;47080.38;5009818;28;20026;-73
2022/05/12 10:27:10;;;;;;;5.40;1.20;;;;;;;-145.18;100.00;47062.81;5010652;28;20072;-73
2022/05/12 10:29:50;;;;;;;8.27;1.47;;;;;;;-145.18;100.00;47070.63;5010185;28;20125;-73
2022/05/12 10:32:38;;;;;;;5.00;1.00;;;;;;;-145.18;100.00;47076.47;5009742;28;20030;-73
2022/05/12 10:35:22;;;;;;;4.60;0.90;;;;;;;-145.18;100.00;47076.47;5009501;28;20030;-73
2022/05/12 10:38:17;;;;;;;8.87;2.07;;;;;;;-145.18;100.00;47097.97;5010386;28;20033;-73
2022/05/12 10:40:46;;;;;;;5.43;1.10;;;;;;;-145.18;100.00;47097.97;5010108;28;20109;-73
2022/05/12 10:43:45;;;;;;;3.87;0.90;;;;;;;-145.18;100.00;47066.72;5009997;28;20030;-74
2022/05/12 10:46:46;;;;;;;2.67;0.80;;;;;;;-145.18;100.00;47074.53;5010290;28;20108;-73
2022/05/12 10:49:44;;;;;;;3.67;1.50;;;;;;;-145.18;100.00;47055.00;5009865;28;20062;-73
2022/05/12 10:52:37;;;;;;;4.93;1.13;;;;;;;-145.18;100.00;47056.94;4993300;28;20042;-73
2022/05/12 10:55:47;;;;;;;5.53;0.90;;;;;;;-145.18;99.16;47039.34;5009386;28;20033;-73
2022/05/12 10:58:37;;;;;;;2.40;1.00;;;;;;;-145.18;100.00;47078.44;5009905;28;20045;-73
2022/05/12 11:01:04;;;;;;;4.63;1.00;;;;;;;-145.18;100.00;47076.47;5009620;28;20038;-73
2022/05/12 11:03:35;;;;;;;5.07;1.03;;;;;;;-145.18;100.00;47072.56;5008440;28;20144;-73
2022/05/12 11:06:08;;;;;;;3.10;1.00;;;;;;;-145.18;100.00;47088.19;5009496;28;20041;-73
2022/05/12 11:08:51;;;;;;;4.27;1.20;;;;;;;-145.18;100.00;47062.81;5009821;28;20063;-74
2022/05/12 11:11:22;;;;;;;3.87;1.00;;;;;;;-145.18;100.00;47113.59;4991603;28;20494;-73
2022/05/12 11:13:59;;;;;;;8.83;1.07;;;;;;;-145.18;100.00;47099.91;4989844;28;20030;-73
2022/05/12 11:16:30;;;;;;;3.43;1.10;;;;;;;-145.18;100.00;47105.78;4992573;28;20117;-73
2022/05/12 11:18:55;;;;;;;3.40;1.30;;;;;;;-145.18;100.00;47105.78;5008646;28;20494;-73
2022/05/12 11:21:25;;;;;;;4.40;0.80;;;;;;;-145.18;100.00;47105.78;5013521;28;20026;-73
2022/05/12 11:23:58;;;;;;;3.10;0.93;;;;;;;-145.18;100.00;47092.09;5013406;28;20025;-73
2022/05/12 11:26:54;;;;;;;6.30;1.10;;;;;;;-145.18;100.00;47080.38;5013799;28;20544;-73
2022/05/12 11:29:43;;;;;;;2.58;0.90;;;;;;;-145.18;100.00;47062.81;5012929;28;20112;-73
2022/05/12 11:32:28;;;;;;;5.77;1.20;;;;;;;-145.18;100.00;47060.84;5013296;28;20518;-73
2022/05/12 11:35:02;;;;;;;5.73;1.53;;;;;;;-145.18;100.00;47084.28;5013011;28;20069;-73
2022/05/12 11:37:33;;;;;;;3.90;1.30;;;;;;;-145.18;100.00;47113.59;5013435;28;20359;-74